createdAt,value
2022-09-28T00:02:23.400Z,994.26
2022-09-28T00:17:23.362Z,994.25
2022-09-28T00:32:23.485Z,994.22
2022-09-28T00:47:23.636Z,994.08
2022-09-28T01:02:23.803Z,994.19
2022-09-28T01:17:23.798Z,993.99
2022-09-28T01:32:23.962Z,994.02
2022-09-28T01:47:24.032Z,994.00
2022-09-28T02:02:24.161Z,993.94
2022-09-28T02:17:24.238Z,993.81
2022-09-28T02:32:24.355Z,993.78
2022-09-28T02:47:24.481Z,993.78
2022-09-28T03:02:24.618Z,993.60
2022-09-28T03:17:24.690Z,993.56
2022-09-28T03:32:24.814Z,993.43
2022-09-28T03:47:24.882Z,993.41
2022-09-28T04:02:25.116Z,993.39
2022-09-28T04:17:25.640Z,993.22
2022-09-28T04:32:25.801Z,993.14
2022-09-28T04:47:25.837Z,993.13
2022-09-28T05:02:25.985Z,993.21
2022-09-28T05:17:26.079Z,993.28
2022-09-28T05:32:26.157Z,993.22
2022-09-28T05:47:26.243Z,993.14
2022-09-28T06:02:26.366Z,993.16
2022-09-28T06:17:26.439Z,993.14
2022-09-28T06:32:26.581Z,993.00
2022-09-28T06:47:26.694Z,993.03
2022-09-28T07:02:26.821Z,993.07
2022-09-28T07:17:27.067Z,992.95
2022-09-28T07:32:27.079Z,992.96
2022-09-28T07:47:32.291Z,992.94
2022-09-28T08:02:32.366Z,992.98
2022-09-28T08:17:32.430Z,992.98
2022-09-28T08:32:32.554Z,993.21
2022-09-28T08:47:32.591Z,993.14
2022-09-28T09:02:32.768Z,993.22
2022-09-28T09:17:32.792Z,993.13
2022-09-28T09:32:32.912Z,993.20
2022-09-28T09:47:32.975Z,993.19
2022-09-28T10:02:33.186Z,993.18
2022-09-28T10:17:33.194Z,993.16
2022-09-28T10:32:33.301Z,993.14
2022-09-28T10:47:33.373Z,993.05
2022-09-28T11:02:36.024Z,993.07
2022-09-28T11:17:36.575Z,993.15
2022-09-28T11:32:36.696Z,993.12
2022-09-28T11:47:36.785Z,993.08
2022-09-28T12:02:37.218Z,993.21
2022-09-28T12:17:37.038Z,993.31
2022-09-28T12:32:37.041Z,993.22
2022-09-28T12:47:37.253Z,993.34
2022-09-28T13:02:37.314Z,993.29
2022-09-28T13:17:37.386Z,993.41
2022-09-28T13:32:37.535Z,993.41
2022-09-28T13:47:37.572Z,993.36
2022-09-28T14:02:37.720Z,993.52
2022-09-28T14:17:37.747Z,993.61
2022-09-28T14:32:37.873Z,993.71
2022-09-28T14:47:37.976Z,993.83
2022-09-28T15:02:38.051Z,993.85
2022-09-28T15:17:40.071Z,993.99
2022-09-28T15:32:40.241Z,994.15
2022-09-28T15:47:40.318Z,994.26
2022-09-28T16:02:40.550Z,994.50
2022-09-28T16:17:40.536Z,994.63
2022-09-28T16:32:40.687Z,994.79
2022-09-28T16:47:40.763Z,994.90
2022-09-28T17:02:46.601Z,994.86
2022-09-28T17:17:45.965Z,994.98
2022-09-28T17:32:46.025Z,995.10
2022-09-28T17:47:46.201Z,995.15
2022-09-28T18:02:46.323Z,995.14
2022-09-28T18:17:46.360Z,995.20
2022-09-28T18:32:46.463Z,995.45
2022-09-28T18:47:46.706Z,995.62
2022-09-28T19:02:47.818Z,995.59
2022-09-28T19:17:48.040Z,995.76
2022-09-28T19:32:48.257Z,995.87
2022-09-28T19:47:48.300Z,995.96
2022-09-28T20:02:48.456Z,996.00
2022-09-28T20:17:49.051Z,996.10
2022-09-28T20:32:49.748Z,996.16
2022-09-28T20:47:50.210Z,996.33
2022-09-28T21:02:50.358Z,996.40
2022-09-28T21:17:50.442Z,996.60
2022-09-28T21:32:50.539Z,996.61
2022-09-28T21:47:50.630Z,996.83
2022-09-28T22:02:50.867Z,996.84
2022-09-28T22:17:50.835Z,996.79
2022-09-28T22:32:50.943Z,996.81
2022-09-28T22:47:51.069Z,996.97
2022-09-28T23:02:51.201Z,996.98
2022-09-28T23:17:51.292Z,997.01
2022-09-28T23:32:51.412Z,997.02
2022-09-28T23:47:51.555Z,996.96
